createdAt,value
2024-03-01T00:00:32.525Z,46.00
2024-03-01T00:02:35.270Z,45.69
2024-03-01T00:04:38.139Z,46.33
2024-03-01T00:06:40.864Z,46.79
2024-03-01T00:08:43.669Z,46.68
2024-03-01T00:10:46.657Z,45.09
2024-03-01T00:12:49.606Z,45.29
2024-03-01T00:14:56.958Z,44.88
2024-03-01T00:16:59.726Z,44.96
2024-03-01T00:19:02.492Z,45.76
2024-03-01T00:21:05.518Z,45.27
2024-03-01T00:23:08.242Z,46.44
2024-03-01T00:25:11.067Z,45.77
2024-03-01T00:27:13.853Z,46.08
2024-03-01T00:29:16.582Z,46.49
2024-03-01T00:31:19.391Z,46.17
2024-03-01T00:33:22.220Z,47.48
2024-03-01T00:35:24.970Z,48.13
2024-03-01T00:37:27.827Z,46.35
2024-03-01T00:39:31.681Z,46.95
2024-03-01T00:41:34.676Z,47.22
2024-03-01T00:43:37.633Z,46.88
2024-03-01T00:45:40.986Z,47.48
2024-03-01T00:47:47.316Z,48.01
2024-03-01T00:49:51.882Z,48.05
2024-03-01T00:51:54.803Z,47.46
2024-03-01T00:54:00.133Z,47.97
2024-03-01T00:56:03.664Z,47.33
2024-03-01T00:58:09.101Z,48.36
2024-03-01T01:00:13.146Z,47.61
2024-03-01T01:02:15.938Z,46.26
2024-03-01T01:04:18.696Z,46.85
2024-03-01T01:06:21.446Z,48.21
2024-03-01T01:08:25.727Z,46.67
2024-03-01T01:10:29.937Z,46.57
2024-03-01T01:12:32.938Z,47.18
2024-03-01T01:14:36.008Z,46.92
2024-03-01T01:16:38.752Z,46.62
2024-03-01T01:18:41.489Z,48.45
2024-03-01T01:20:45.891Z,47.20
2024-03-01T01:22:48.666Z,46.62
2024-03-01T01:24:51.526Z,46.81
2024-03-01T01:26:54.276Z,47.85
2024-03-01T01:28:58.082Z,46.45
2024-03-01T01:31:01.893Z,46.65
2024-03-01T01:33:05.097Z,46.39
2024-03-01T01:35:08.186Z,46.44
2024-03-01T01:37:11.050Z,44.84
2024-03-01T01:39:13.977Z,45.88
2024-03-01T01:41:16.731Z,44.45
2024-03-01T01:43:19.544Z,45.72
2024-03-01T01:45:22.406Z,45.05
2024-03-01T01:47:25.573Z,44.42
2024-03-01T01:49:30.298Z,44.29
2024-03-01T01:51:34.586Z,44.52
2024-03-01T01:53:38.135Z,43.43
2024-03-01T01:55:42.525Z,43.94
2024-03-01T01:57:50.228Z,44.69
2024-03-01T02:00:02.623Z,44.35
2024-03-01T02:02:15.477Z,43.53
2024-03-01T02:04:18.264Z,42.55
2024-03-01T02:06:23.872Z,43.09
2024-03-01T02:08:26.692Z,43.89
2024-03-01T02:10:29.458Z,46.02
2024-03-01T02:12:32.480Z,44.24
2024-03-01T02:14:35.225Z,46.54
2024-03-01T02:16:38.060Z,46.24
2024-03-01T02:18:40.880Z,45.85
2024-03-01T02:20:59.893Z,46.02
2024-03-01T02:23:06.309Z,45.54
2024-03-01T02:25:09.163Z,46.55
2024-03-01T02:27:11.962Z,46.22
2024-03-01T02:29:14.765Z,44.64
2024-03-01T02:31:17.938Z,44.14
2024-03-01T02:33:21.550Z,44.50
2024-03-01T02:35:30.374Z,44.15
2024-03-01T02:37:33.250Z,43.68
2024-03-01T02:39:36.019Z,45.01
2024-03-01T02:41:38.743Z,43.80
2024-03-01T02:43:41.474Z,45.12
2024-03-01T02:45:45.248Z,44.12
2024-03-01T02:47:48.113Z,43.99
2024-03-01T02:49:50.901Z,44.69
2024-03-01T02:51:53.979Z,45.69
2024-03-01T02:53:57.144Z,44.03
2024-03-01T02:55:59.922Z,44.77
2024-03-01T02:58:02.859Z,44.32
2024-03-01T03:00:12.451Z,45.16
2024-03-01T03:02:15.281Z,45.05
2024-03-01T03:04:19.166Z,44.65
2024-03-01T03:06:24.325Z,44.05
2024-03-01T03:08:27.085Z,46.21
2024-03-01T03:10:29.844Z,44.12
2024-03-01T03:12:32.584Z,43.44
2024-03-01T03:14:35.331Z,45.10
2024-03-01T03:16:38.159Z,43.20
2024-03-01T03:18:41.244Z,44.37
2024-03-01T03:20:43.966Z,44.49
2024-03-01T03:22:47.326Z,44.26
2024-03-01T03:24:50.276Z,43.66
2024-03-01T03:26:53.067Z,43.40
2024-03-01T03:28:55.848Z,43.80
2024-03-01T03:30:58.722Z,43.39
2024-03-01T03:33:03.916Z,44.05
2024-03-01T03:35:06.891Z,43.40
2024-03-01T03:37:10.485Z,43.57
2024-03-01T03:39:13.738Z,43.75
2024-03-01T03:41:16.706Z,43.53
2024-03-01T03:43:19.479Z,42.88
2024-03-01T03:45:22.224Z,42.80
2024-03-01T03:47:24.980Z,43.05
2024-03-01T03:49:27.857Z,43.48
2024-03-01T03:51:31.223Z,43.02
2024-03-01T03:53:34.115Z,42.65
2024-03-01T03:55:37.154Z,42.32
2024-03-01T03:57:39.983Z,42.10
2024-03-01T03:59:42.887Z,41.84
2024-03-01T04:01:45.701Z,41.94
2024-03-01T04:03:49.116Z,41.53
2024-03-01T04:05:51.898Z,41.68
2024-03-01T04:07:54.648Z,41.95
2024-03-01T04:09:58.884Z,41.36
2024-03-01T04:12:06.928Z,40.90
2024-03-01T04:14:13.088Z,41.37
2024-03-01T04:16:15.902Z,40.29
2024-03-01T04:18:19.056Z,41.31
2024-03-01T04:20:21.963Z,40.09
2024-03-01T04:22:25.726Z,40.54
2024-03-01T04:24:28.510Z,41.34
2024-03-01T04:26:31.242Z,41.45
2024-03-01T04:28:34.039Z,40.02
2024-03-01T04:30:36.795Z,41.05
2024-03-01T04:32:39.706Z,40.58
2024-03-01T04:34:42.593Z,40.50
2024-03-01T04:36:46.087Z,40.53
2024-03-01T04:38:48.825Z,39.43
2024-03-01T04:40:51.609Z,40.25
2024-03-01T04:42:54.383Z,39.44
2024-03-01T04:44:57.196Z,40.47
2024-03-01T04:46:59.938Z,40.57
2024-03-01T04:49:02.763Z,41.12
2024-03-01T04:51:14.812Z,41.17
2024-03-01T04:53:17.553Z,40.40
2024-03-01T04:55:20.693Z,39.69
2024-03-01T04:57:23.494Z,38.93
2024-03-01T04:59:26.266Z,39.39
2024-03-01T05:01:30.655Z,38.81
2024-03-01T05:03:33.411Z,37.87
2024-03-01T05:05:37.488Z,39.32
2024-03-01T05:07:40.212Z,38.39
2024-03-01T05:09:44.326Z,38.52
2024-03-01T05:11:47.230Z,38.08
2024-03-01T05:13:49.962Z,38.97
2024-03-01T05:15:53.834Z,39.79
2024-03-01T05:17:56.669Z,39.24
2024-03-01T05:19:59.904Z,39.66
2024-03-01T05:22:02.727Z,38.75
2024-03-01T05:24:07.159Z,39.66
2024-03-01T05:26:11.338Z,39.51
2024-03-01T05:28:14.095Z,39.33
2024-03-01T05:30:32.165Z,38.78
2024-03-01T05:32:46.778Z,39.92
2024-03-01T05:34:52.641Z,38.69
2024-03-01T05:36:55.452Z,38.17
2024-03-01T05:38:58.202Z,38.34
2024-03-01T05:41:01.588Z,38.23
2024-03-01T05:43:05.391Z,38.96
2024-03-01T05:45:09.843Z,39.59
2024-03-01T05:47:12.740Z,40.17
2024-03-01T05:49:15.611Z,38.87
2024-03-01T05:51:18.333Z,40.23
2024-03-01T05:53:21.148Z,40.00
2024-03-01T05:55:25.528Z,40.28
2024-03-01T05:57:28.656Z,40.48
2024-03-01T05:59:31.407Z,40.85
2024-03-01T06:01:35.836Z,40.02
2024-03-01T06:03:39.747Z,39.95
2024-03-01T06:05:42.474Z,39.63
2024-03-01T06:07:47.520Z,40.65
2024-03-01T06:09:50.333Z,40.50
2024-03-01T06:11:53.639Z,39.44
2024-03-01T06:13:56.362Z,39.35
2024-03-01T06:16:00.340Z,40.35
2024-03-01T06:18:04.446Z,40.15
2024-03-01T06:20:09.516Z,40.45
2024-03-01T06:22:15.156Z,39.95
2024-03-01T06:24:17.962Z,39.39
2024-03-01T06:26:20.706Z,39.43
2024-03-01T06:28:24.230Z,38.98
2024-03-01T06:30:26.996Z,38.89
2024-03-01T06:32:29.761Z,39.12
2024-03-01T06:34:32.870Z,38.36
2024-03-01T06:36:35.641Z,38.56
2024-03-01T06:38:39.841Z,38.75
2024-03-01T06:40:42.649Z,41.28
2024-03-01T06:44:48.771Z,42.41
2024-03-01T06:46:51.607Z,41.34
2024-03-01T06:48:54.414Z,40.48
2024-03-01T06:50:57.419Z,47.01
2024-03-01T06:53:00.972Z,42.84
2024-03-01T06:55:05.578Z,44.53
2024-03-01T06:57:08.334Z,42.27
2024-03-01T06:59:12.652Z,41.25
2024-03-01T07:01:19.983Z,43.75
2024-03-01T07:03:23.779Z,44.05
2024-03-01T07:05:26.574Z,40.93
2024-03-01T07:07:29.797Z,42.09
2024-03-01T07:09:33.882Z,42.62
2024-03-01T07:11:36.722Z,40.91
2024-03-01T07:13:39.985Z,39.54
2024-03-01T07:15:42.748Z,39.03
2024-03-01T07:17:45.504Z,38.52
2024-03-01T07:19:48.266Z,38.36
2024-03-01T07:21:51.337Z,37.28
2024-03-01T07:23:57.612Z,43.14
2024-03-01T07:26:02.966Z,49.25
2024-03-01T07:28:07.001Z,59.40
2024-03-01T07:30:10.516Z,61.33
2024-03-01T07:32:13.755Z,65.00
2024-03-01T07:34:17.096Z,58.41
2024-03-01T07:36:19.871Z,42.82
2024-03-01T07:38:22.671Z,44.00
2024-03-01T07:40:25.465Z,48.14
2024-03-01T07:42:28.354Z,45.58
2024-03-01T07:44:31.133Z,47.74
2024-03-01T07:46:35.867Z,41.87
2024-03-01T07:48:40.712Z,41.47
2024-03-01T07:50:45.843Z,39.84
2024-03-01T07:52:48.595Z,39.04
2024-03-01T07:54:51.359Z,39.64
2024-03-01T07:56:54.136Z,38.56
2024-03-01T07:59:05.763Z,37.57
2024-03-01T08:01:09.289Z,39.53
2024-03-01T08:03:12.424Z,39.38
2024-03-01T08:05:15.177Z,37.89
2024-03-01T08:07:18.758Z,38.66
2024-03-01T08:09:33.970Z,37.79
2024-03-01T08:11:47.339Z,38.85
2024-03-01T08:13:50.896Z,38.52
2024-03-01T08:15:53.719Z,39.08
2024-03-01T08:17:57.568Z,38.91
2024-03-01T08:20:00.690Z,38.70
2024-03-01T08:22:16.028Z,39.35
2024-03-01T08:24:24.932Z,38.22
2024-03-01T08:26:27.778Z,37.42
2024-03-01T08:28:32.377Z,39.45
2024-03-01T08:30:35.342Z,37.93
2024-03-01T08:32:49.933Z,36.90
2024-03-01T08:34:56.259Z,36.55
2024-03-01T08:36:59.461Z,36.26
2024-03-01T08:39:17.104Z,44.00
2024-03-01T08:41:20.803Z,43.30
2024-03-01T08:43:23.707Z,41.00
2024-03-01T08:45:44.410Z,39.65
2024-03-01T08:48:05.061Z,38.11
2024-03-01T08:50:26.908Z,36.45
2024-03-01T08:52:35.277Z,37.60
2024-03-01T08:54:39.394Z,37.16
2024-03-01T08:56:42.150Z,37.02
2024-03-01T08:58:45.902Z,35.88
2024-03-01T09:00:55.234Z,36.08
2024-03-01T09:02:58.143Z,37.23
2024-03-01T09:05:00.946Z,36.51
2024-03-01T09:07:10.511Z,36.95
2024-03-01T09:09:23.344Z,36.63
2024-03-01T09:11:26.160Z,37.65
2024-03-01T09:13:32.364Z,37.65
2024-03-01T09:15:41.977Z,36.89
2024-03-01T09:17:45.100Z,35.55
2024-03-01T09:19:49.091Z,35.39
2024-03-01T09:21:52.922Z,35.67
2024-03-01T09:23:56.369Z,36.72
2024-03-01T09:26:06.920Z,34.76
2024-03-01T09:28:10.733Z,35.20
2024-03-01T09:30:17.432Z,33.88
2024-03-01T09:32:20.405Z,34.83
2024-03-01T09:34:25.411Z,35.79
2024-03-01T09:36:28.434Z,34.90
2024-03-01T09:38:31.260Z,33.53
2024-03-01T09:40:40.669Z,33.03
2024-03-01T09:42:52.688Z,32.49
2024-03-01T09:45:24.011Z,30.06
2024-03-01T09:47:38.029Z,31.05
2024-03-01T09:50:02.568Z,31.10
2024-03-01T09:52:22.055Z,34.32
2024-03-01T09:54:49.901Z,29.18
2024-03-01T09:56:52.780Z,29.76
2024-03-01T09:59:22.548Z,30.29
2024-03-01T10:01:32.782Z,27.96
2024-03-01T10:03:57.122Z,29.61
2024-03-01T10:06:02.670Z,31.62
2024-03-01T10:08:30.487Z,28.47
2024-03-01T10:10:37.629Z,26.60
2024-03-01T10:13:01.351Z,25.92
2024-03-01T10:15:15.707Z,28.85
2024-03-01T10:17:29.094Z,26.15
2024-03-01T10:19:53.408Z,25.98
2024-03-01T10:22:24.902Z,25.77
2024-03-01T10:24:58.658Z,24.46
2024-03-01T10:27:21.332Z,25.32
2024-03-01T10:29:39.321Z,26.15
2024-03-01T10:31:57.814Z,27.02
2024-03-01T10:34:21.074Z,26.00
2024-03-01T10:36:32.142Z,27.22
2024-03-01T10:38:52.745Z,26.15
2024-03-01T10:41:19.242Z,26.44
2024-03-01T10:44:02.758Z,25.89
2024-03-01T10:46:24.853Z,25.47
2024-03-01T10:48:39.494Z,26.15
2024-03-01T10:50:58.521Z,31.95
2024-03-01T10:53:06.367Z,29.35
2024-03-01T10:55:20.569Z,27.37
2024-03-01T10:57:24.980Z,25.75
2024-03-01T11:00:03.602Z,23.76
2024-03-01T11:02:15.866Z,22.35
2024-03-01T11:04:32.996Z,23.35
2024-03-01T11:06:55.773Z,21.93
2024-03-01T11:09:03.655Z,24.25
2024-03-01T11:11:14.403Z,22.37
2024-03-01T11:13:20.941Z,22.97
2024-03-01T11:15:28.017Z,21.74
2024-03-01T11:17:34.429Z,22.07
2024-03-01T11:19:40.210Z,22.25
2024-03-01T11:21:52.711Z,20.97
2024-03-01T11:24:10.874Z,21.59
2024-03-01T11:26:27.348Z,20.67
2024-03-01T11:28:33.922Z,24.07
2024-03-01T11:30:45.682Z,27.17
2024-03-01T11:32:53.227Z,22.00
2024-03-01T11:34:56.032Z,22.89
2024-03-01T11:37:12.475Z,26.14
2024-03-01T11:39:27.069Z,21.71
2024-03-01T11:41:53.949Z,21.14
2024-03-01T11:44:30.925Z,22.85
2024-03-01T11:46:33.723Z,22.92
2024-03-01T11:48:55.005Z,20.72
2024-03-01T11:51:28.367Z,21.99
2024-03-01T11:53:33.858Z,22.12
2024-03-01T11:55:57.738Z,25.46
2024-03-01T11:58:20.853Z,23.01
2024-03-01T12:00:56.895Z,22.29
2024-03-01T12:03:08.832Z,22.35
2024-03-01T12:05:51.882Z,26.31
2024-03-01T12:08:17.394Z,22.32
2024-03-01T12:10:42.905Z,25.92
2024-03-01T12:12:53.599Z,22.68
2024-03-01T12:15:01.863Z,21.91
2024-03-01T12:17:18.171Z,20.75
2024-03-01T12:19:30.931Z,20.86
2024-03-01T12:21:41.622Z,19.80
2024-03-01T12:24:23.221Z,20.37
2024-03-01T12:26:36.016Z,19.32
2024-03-01T12:29:01.430Z,18.82
2024-03-01T12:31:35.883Z,19.04
2024-03-01T12:33:57.694Z,19.75
2024-03-01T12:36:30.306Z,19.82
2024-03-01T12:38:50.375Z,20.58
2024-03-01T12:41:30.647Z,21.14
2024-03-01T12:43:42.451Z,22.72
2024-03-01T12:46:18.520Z,24.34
2024-03-01T12:48:40.404Z,26.18
2024-03-01T12:50:55.430Z,24.79
2024-03-01T12:53:19.249Z,24.70
2024-03-01T12:55:39.829Z,24.05
2024-03-01T12:58:23.372Z,25.83
2024-03-01T13:00:33.125Z,25.83
2024-03-01T13:03:08.504Z,27.94
2024-03-01T13:05:20.224Z,27.38
2024-03-01T13:07:26.690Z,26.44
2024-03-01T13:09:35.779Z,25.85
2024-03-01T13:11:39.611Z,26.32
2024-03-01T13:13:57.241Z,25.85
2024-03-01T13:16:17.360Z,25.39
2024-03-01T13:18:27.187Z,26.38
2024-03-01T13:20:31.283Z,27.90
2024-03-01T13:22:42.711Z,27.16
2024-03-01T13:25:18.682Z,29.26
2024-03-01T13:27:38.182Z,29.92
2024-03-01T13:29:44.343Z,27.13
2024-03-01T13:32:06.066Z,27.16
2024-03-01T13:34:11.371Z,27.82
2024-03-01T13:36:21.847Z,28.70
2024-03-01T13:38:32.468Z,28.01
2024-03-01T13:40:51.918Z,28.24
2024-03-01T13:43:03.762Z,27.17
2024-03-01T13:45:13.718Z,28.34
2024-03-01T13:47:32.376Z,28.94
2024-03-01T13:49:41.428Z,28.77
2024-03-01T13:51:47.263Z,29.77
2024-03-01T13:53:52.379Z,28.02
2024-03-01T13:55:56.312Z,28.33
2024-03-01T13:58:00.411Z,30.86
2024-03-01T14:00:05.138Z,30.71
2024-03-01T14:02:15.229Z,29.03
2024-03-01T14:04:18.099Z,26.74
2024-03-01T14:06:24.895Z,26.99
2024-03-01T14:08:28.256Z,27.46
2024-03-01T14:10:31.203Z,27.77
2024-03-01T14:12:33.990Z,27.62
2024-03-01T14:14:36.895Z,25.54
2024-03-01T14:16:39.766Z,26.35
2024-03-01T14:18:42.515Z,79.80
2024-03-01T14:20:45.314Z,26.40
2024-03-01T14:22:55.664Z,25.85
2024-03-01T14:25:01.141Z,25.42
2024-03-01T14:27:04.440Z,25.37
2024-03-01T14:29:08.753Z,22.14
2024-03-01T14:31:11.619Z,111.63
2024-03-01T14:33:20.442Z,118.56
2024-03-01T14:35:26.183Z,21.56
2024-03-01T14:37:29.675Z,31.46
2024-03-01T14:39:33.345Z,23.25
2024-03-01T14:41:41.716Z,19.33
2024-03-01T14:43:47.681Z,49.43
2024-03-01T14:45:58.124Z,36.45
2024-03-01T14:48:02.092Z,26.43
2024-03-01T14:50:04.945Z,34.73
2024-03-01T14:52:13.684Z,31.50
2024-03-01T14:54:26.332Z,33.02
2024-03-01T14:56:29.082Z,18.95
2024-03-01T14:58:32.554Z,20.18
2024-03-01T15:00:37.207Z,20.90
2024-03-01T15:02:39.951Z,21.17
2024-03-01T15:04:44.563Z,21.82
2024-03-01T15:06:54.515Z,22.79
2024-03-01T15:09:01.887Z,21.50
2024-03-01T15:11:13.425Z,25.35
2024-03-01T15:13:28.566Z,21.19
2024-03-01T15:15:31.659Z,23.08
2024-03-01T15:17:35.743Z,20.89
2024-03-01T15:19:39.809Z,21.61
2024-03-01T15:21:45.553Z,21.05
2024-03-01T15:23:49.678Z,21.36
2024-03-01T15:26:03.658Z,21.16
2024-03-01T15:28:06.697Z,20.82
2024-03-01T15:30:09.915Z,21.35
2024-03-01T15:32:12.643Z,21.11
2024-03-01T15:34:19.407Z,21.75
2024-03-01T15:36:23.554Z,21.64
2024-03-01T15:38:30.141Z,21.11
2024-03-01T15:40:39.310Z,24.18
2024-03-01T15:42:42.472Z,29.26
2024-03-01T15:44:46.226Z,32.55
2024-03-01T15:46:50.431Z,22.31
2024-03-01T15:48:53.669Z,22.17
2024-03-01T15:50:57.733Z,20.95
2024-03-01T15:53:03.163Z,21.91
2024-03-01T15:55:09.008Z,21.63
2024-03-01T15:57:12.151Z,22.23
2024-03-01T15:59:14.902Z,23.47
2024-03-01T16:01:19.158Z,23.88
2024-03-01T16:03:22.718Z,23.61
2024-03-01T16:05:25.975Z,24.18
2024-03-01T16:07:29.375Z,25.19
2024-03-01T16:09:39.196Z,26.20
2024-03-01T16:11:43.751Z,25.90
2024-03-01T16:13:49.025Z,25.88
2024-03-01T16:15:59.554Z,25.37
2024-03-01T16:18:02.646Z,25.60
2024-03-01T16:20:29.690Z,28.02
2024-03-01T16:22:32.522Z,28.14
2024-03-01T16:24:36.973Z,28.72
2024-03-01T16:26:39.840Z,27.75
2024-03-01T16:28:44.555Z,27.18
2024-03-01T16:30:49.567Z,26.48
2024-03-01T16:32:52.662Z,25.24
2024-03-01T16:34:55.439Z,24.30
2024-03-01T16:36:58.267Z,24.47
2024-03-01T16:39:01.706Z,24.89
2024-03-01T16:41:11.970Z,26.19
2024-03-01T16:43:36.469Z,39.14
2024-03-01T16:45:39.924Z,29.67
2024-03-01T16:47:42.702Z,36.87
2024-03-01T16:49:45.532Z,51.85
2024-03-01T16:51:58.882Z,47.81
2024-03-01T16:54:04.610Z,38.00
2024-03-01T16:56:08.648Z,37.63
2024-03-01T16:58:14.120Z,31.05
2024-03-01T17:00:18.259Z,27.03
2024-03-01T17:02:34.658Z,22.39
2024-03-01T17:04:38.007Z,22.79
2024-03-01T17:06:42.249Z,21.61
2024-03-01T17:08:47.122Z,21.55
2024-03-01T17:10:50.461Z,21.33
2024-03-01T17:12:54.918Z,21.65
2024-03-01T17:14:57.649Z,21.42
2024-03-01T17:17:00.400Z,21.68
2024-03-01T17:19:05.929Z,22.34
2024-03-01T17:21:10.977Z,21.87
2024-03-01T17:23:14.733Z,25.33
2024-03-01T17:25:17.985Z,22.48
2024-03-01T17:27:22.298Z,23.45
2024-03-01T17:29:25.950Z,23.17
2024-03-01T17:31:30.073Z,84.02
2024-03-01T17:33:32.827Z,28.46
2024-03-01T17:35:35.957Z,23.03
2024-03-01T17:37:40.244Z,24.10
2024-03-01T17:39:43.008Z,26.56
2024-03-01T17:41:45.726Z,26.08
2024-03-01T17:43:49.811Z,24.78
2024-03-01T17:45:52.589Z,25.10
2024-03-01T17:47:55.326Z,24.55
2024-03-01T17:49:58.150Z,26.40
2024-03-01T17:52:02.334Z,26.34
2024-03-01T17:54:06.469Z,27.54
2024-03-01T17:56:10.788Z,26.57
2024-03-01T17:58:15.050Z,26.69
2024-03-01T18:00:18.287Z,25.15
2024-03-01T18:02:21.313Z,24.15
2024-03-01T18:04:24.140Z,25.17
2024-03-01T18:06:26.996Z,24.76
2024-03-01T18:08:30.534Z,25.39
2024-03-01T18:10:33.614Z,26.79
2024-03-01T18:12:36.535Z,26.98
2024-03-01T18:14:39.350Z,26.87
2024-03-01T18:16:42.523Z,48.17
2024-03-01T18:18:45.625Z,28.39
2024-03-01T18:20:48.528Z,31.04
2024-03-01T18:22:51.344Z,28.17
2024-03-01T18:24:54.174Z,29.07
2024-03-01T18:26:58.288Z,28.48
2024-03-01T18:29:02.859Z,33.09
2024-03-01T18:31:06.855Z,27.76
2024-03-01T18:33:09.696Z,28.20
2024-03-01T18:35:12.500Z,28.97
2024-03-01T18:37:16.562Z,29.25
2024-03-01T18:39:19.369Z,29.53
2024-03-01T18:41:23.298Z,28.34
2024-03-01T18:43:26.612Z,28.67
2024-03-01T18:45:29.809Z,29.97
2024-03-01T18:47:33.452Z,30.07
2024-03-01T18:49:41.367Z,30.38
2024-03-01T18:51:45.510Z,29.84
2024-03-01T18:53:48.762Z,30.77
2024-03-01T18:55:51.914Z,31.65
2024-03-01T18:57:54.753Z,31.35
2024-03-01T18:59:58.411Z,31.43
2024-03-01T19:02:05.548Z,31.44
2024-03-01T19:04:09.389Z,31.78
2024-03-01T19:06:12.255Z,31.31
2024-03-01T19:08:16.110Z,32.10
2024-03-01T19:10:19.648Z,31.96
2024-03-01T19:12:24.379Z,31.37
2024-03-01T19:14:27.251Z,31.87
2024-03-01T19:16:33.062Z,32.81
2024-03-01T19:18:36.438Z,35.70
2024-03-01T19:20:39.761Z,39.36
2024-03-01T19:22:43.375Z,31.92
2024-03-01T19:24:47.477Z,32.50
2024-03-01T19:26:53.567Z,32.07
2024-03-01T19:28:59.194Z,32.35
2024-03-01T19:31:03.909Z,31.76
2024-03-01T19:33:09.427Z,30.91
2024-03-01T19:35:14.297Z,31.45
2024-03-01T19:37:18.498Z,32.31
2024-03-01T19:39:22.565Z,31.70
2024-03-01T19:41:27.524Z,31.89
2024-03-01T19:43:30.418Z,31.92
2024-03-01T19:45:33.707Z,32.60
2024-03-01T19:47:37.092Z,31.93
2024-03-01T19:49:40.680Z,32.84
2024-03-01T19:51:45.367Z,32.92
2024-03-01T19:53:48.730Z,32.94
2024-03-01T19:55:52.147Z,32.57
2024-03-01T19:57:56.529Z,32.75
2024-03-01T20:00:02.669Z,33.08
2024-03-01T20:02:09.435Z,33.83
2024-03-01T20:04:12.866Z,94.15
2024-03-01T20:06:16.191Z,55.45
2024-03-01T20:08:19.720Z,53.37
2024-03-01T20:10:27.367Z,35.65
2024-03-01T20:12:30.805Z,34.23
2024-03-01T20:14:34.278Z,34.15
2024-03-01T20:16:37.768Z,35.28
2024-03-01T20:18:44.441Z,34.51
2024-03-01T20:20:47.902Z,34.13
2024-03-01T20:22:51.507Z,34.81
2024-03-01T20:24:55.229Z,34.52
2024-03-01T20:26:58.079Z,33.50
2024-03-01T20:29:01.526Z,34.15
2024-03-01T20:31:06.458Z,34.29
2024-03-01T20:33:09.817Z,34.53
2024-03-01T20:35:13.641Z,34.73
2024-03-01T20:37:17.019Z,34.16
2024-03-01T20:39:21.432Z,34.54
2024-03-01T20:41:24.293Z,36.29
2024-03-01T20:43:27.920Z,35.10
2024-03-01T20:45:31.521Z,36.25
2024-03-01T20:47:34.948Z,36.01
2024-03-01T20:49:38.813Z,35.15
2024-03-01T20:51:42.136Z,36.07
2024-03-01T20:53:45.090Z,33.68
2024-03-01T20:55:48.121Z,33.15
2024-03-01T20:57:52.211Z,33.32
2024-03-01T20:59:58.676Z,33.35
2024-03-01T21:02:01.692Z,34.33
2024-03-01T21:04:05.122Z,33.57
2024-03-01T21:06:08.594Z,34.01
2024-03-01T21:08:11.504Z,32.88
2024-03-01T21:10:17.273Z,32.90
2024-03-01T21:12:20.124Z,34.20
2024-03-01T21:14:24.629Z,33.08
2024-03-01T21:16:28.008Z,33.69
2024-03-01T21:18:31.299Z,32.97
2024-03-01T21:20:34.417Z,34.11
2024-03-01T21:24:47.296Z,33.95
2024-03-01T21:26:50.437Z,33.75
2024-03-01T21:28:53.664Z,33.85
2024-03-01T21:30:56.487Z,33.11
2024-03-01T21:33:02.559Z,32.73
2024-03-01T21:35:06.286Z,32.86
2024-03-01T21:37:09.059Z,32.78
2024-03-01T21:39:11.992Z,33.25
2024-03-01T21:41:16.454Z,32.36
2024-03-01T21:43:19.217Z,32.85
2024-03-01T21:45:22.576Z,32.28
2024-03-01T21:47:25.482Z,31.86
2024-03-01T21:49:28.218Z,33.66
2024-03-01T21:51:30.972Z,36.74
2024-03-01T21:53:33.749Z,35.15
2024-03-01T21:55:36.633Z,33.96
2024-03-01T21:57:39.518Z,34.52
2024-03-01T21:59:42.324Z,32.00
2024-03-01T22:01:45.105Z,31.63
2024-03-01T22:03:47.862Z,31.58
2024-03-01T22:05:50.808Z,32.01
2024-03-01T22:08:06.911Z,32.25
2024-03-01T22:10:14.154Z,31.58
2024-03-01T22:12:16.902Z,32.32
2024-03-01T22:14:20.025Z,31.89
2024-03-01T22:16:22.778Z,32.37
2024-03-01T22:18:25.595Z,31.78
2024-03-01T22:20:28.344Z,31.95
2024-03-01T22:22:31.121Z,31.84
2024-03-01T22:24:34.681Z,31.99
2024-03-01T22:26:37.983Z,33.17
2024-03-01T22:28:47.153Z,33.49
2024-03-01T22:30:50.027Z,32.99
2024-03-01T22:32:54.349Z,34.36
2024-03-01T22:34:57.250Z,35.17
2024-03-01T22:37:00.126Z,35.05
2024-03-01T22:39:03.274Z,36.27
2024-03-01T22:41:06.141Z,34.57
2024-03-01T22:43:08.900Z,35.14
2024-03-01T22:45:12.077Z,34.84
2024-03-01T22:47:15.841Z,34.67
2024-03-01T22:51:40.481Z,36.18
2024-03-01T22:53:43.228Z,36.02
2024-03-01T22:55:47.513Z,35.61
2024-03-01T22:57:50.869Z,35.41
2024-03-01T23:00:19.568Z,35.70
2024-03-01T23:02:23.335Z,36.22
2024-03-01T23:04:37.007Z,37.56
2024-03-01T23:06:39.925Z,35.88
2024-03-01T23:08:52.444Z,35.66
2024-03-01T23:10:58.058Z,36.02
2024-03-01T23:13:01.522Z,35.66
2024-03-01T23:15:04.588Z,36.37
2024-03-01T23:17:08.544Z,35.33
2024-03-01T23:19:11.314Z,35.36
2024-03-01T23:21:14.102Z,35.75
2024-03-01T23:23:19.207Z,36.59
2024-03-01T23:25:21.939Z,37.56
2024-03-01T23:27:24.740Z,38.09
2024-03-01T23:29:27.541Z,37.19
2024-03-01T23:31:30.276Z,37.34
2024-03-01T23:33:33.101Z,37.03
2024-03-01T23:35:36.833Z,37.83
2024-03-01T23:37:39.586Z,38.55
2024-03-01T23:39:42.348Z,37.64
2024-03-01T23:41:45.101Z,38.20
2024-03-01T23:43:47.920Z,38.32
2024-03-01T23:45:51.010Z,37.87
2024-03-01T23:47:54.063Z,38.67
2024-03-01T23:49:56.827Z,37.85
2024-03-01T23:51:59.681Z,38.53
2024-03-01T23:54:02.499Z,38.79
2024-03-01T23:56:05.408Z,38.32
2024-03-01T23:58:08.234Z,38.96
